sensor_id;sensor_type;location;lat;lon;timestamp;temperature;humidity
13256;DHT22;37913;48.370;10.930;2023-07-31T00:02:13;13.50;99.90
13256;DHT22;37913;48.370;10.930;2023-07-31T00:04:40;13.50;99.90
13256;DHT22;37913;48.370;10.930;2023-07-31T00:07:07;13.50;99.90
13256;DHT22;37913;48.370;10.930;2023-07-31T00:09:37;13.30;99.90
13256;DHT22;37913;48.370;10.930;2023-07-31T00:12:04;13.30;99.90
13256;DHT22;37913;48.370;10.930;2023-07-31T00:14:31;13.20;99.90
13256;DHT22;37913;48.370;10.930;2023-07-31T00:16:58;13.10;99.90
13256;DHT22;37913;48.370;10.930;2023-07-31T00:19:25;13.10;99.90
13256;DHT22;37913;48.370;10.930;2023-07-31T00:21:52;13.40;99.90
13256;DHT22;37913;48.370;10.930;2023-07-31T00:24:19;13.40;99.90
13256;DHT22;37913;48.370;10.930;2023-07-31T00:26:47;13.60;99.90
13256;DHT22;37913;48.370;10.930;2023-07-31T00:29:14;13.50;99.90
13256;DHT22;37913;48.370;10.930;2023-07-31T00:31:41;13.60;99.90
13256;DHT22;37913;48.370;10.930;2023-07-31T00:34:07;13.40;99.90
13256;DHT22;37913;48.370;10.930;2023-07-31T00:36:35;13.70;99.90
13256;DHT22;37913;48.370;10.930;2023-07-31T00:39:02;13.80;99.90
13256;DHT22;37913;48.370;10.930;2023-07-31T00:41:30;13.90;99.90
13256;DHT22;37913;48.370;10.930;2023-07-31T00:43:58;13.90;99.90
13256;DHT22;37913;48.370;10.930;2023-07-31T00:46:25;13.90;99.90
13256;DHT22;37913;48.370;10.930;2023-07-31T00:48:52;13.90;99.90
13256;DHT22;37913;48.370;10.930;2023-07-31T00:51:20;13.70;99.90
13256;DHT22;37913;48.370;10.930;2023-07-31T00:53:47;13.70;99.90
13256;DHT22;37913;48.370;10.930;2023-07-31T00:56:14;13.80;99.90
13256;DHT22;37913;48.370;10.930;2023-07-31T00:58:41;13.80;99.90
13256;DHT22;37913;48.370;10.930;2023-07-31T01:01:09;13.80;99.90
13256;DHT22;37913;48.370;10.930;2023-07-31T01:03:36;14.00;99.90
13256;DHT22;37913;48.370;10.930;2023-07-31T01:06:13;14.00;99.90
13256;DHT22;37913;48.370;10.930;2023-07-31T01:08:44;14.00;99.90
13256;DHT22;37913;48.370;10.930;2023-07-31T01:11:16;13.80;99.90
13256;DHT22;37913;48.370;10.930;2023-07-31T01:13:48;13.90;99.90
13256;DHT22;37913;48.370;10.930;2023-07-31T01:16:16;13.70;99.90
13256;DHT22;37913;48.370;10.930;2023-07-31T01:18:43;13.80;99.90
13256;DHT22;37913;48.370;10.930;2023-07-31T01:21:21;13.80;99.90
13256;DHT22;37913;48.370;10.930;2023-07-31T01:24:13;13.70;99.90
13256;DHT22;37913;48.370;10.930;2023-07-31T01:26:50;13.70;99.90
13256;DHT22;37913;48.370;10.930;2023-07-31T01:29:25;13.80;99.90
13256;DHT22;37913;48.370;10.930;2023-07-31T01:31:57;13.90;99.90
13256;DHT22;37913;48.370;10.930;2023-07-31T01:34:28;13.90;99.90
13256;DHT22;37913;48.370;10.930;2023-07-31T01:36:56;13.80;99.90
13256;DHT22;37913;48.370;10.930;2023-07-31T01:39:23;13.70;99.90
13256;DHT22;37913;48.370;10.930;2023-07-31T01:41:51;13.70;99.90
13256;DHT22;37913;48.370;10.930;2023-07-31T01:44:18;13.60;99.90
13256;DHT22;37913;48.370;10.930;2023-07-31T01:46:45;13.70;99.90
13256;DHT22;37913;48.370;10.930;2023-07-31T01:49:13;13.70;99.90
13256;DHT22;37913;48.370;10.930;2023-07-31T01:51:40;13.80;99.90
13256;DHT22;37913;48.370;10.930;2023-07-31T01:54:07;13.80;99.90
13256;DHT22;37913;48.370;10.930;2023-07-31T01:56:34;13.80;99.90
13256;DHT22;37913;48.370;10.930;2023-07-31T01:59:02;13.80;99.90
13256;DHT22;37913;48.370;10.930;2023-07-31T02:01:29;13.80;99.90
13256;DHT22;37913;48.370;10.930;2023-07-31T02:03:56;13.70;99.90
13256;DHT22;37913;48.370;10.930;2023-07-31T02:06:23;13.70;99.90
13256;DHT22;37913;48.370;10.930;2023-07-31T02:09:00;13.70;99.90
13256;DHT22;37913;48.370;10.930;2023-07-31T02:11:27;13.60;99.90
13256;DHT22;37913;48.370;10.930;2023-07-31T02:13:54;13.60;99.90
13256;DHT22;37913;48.370;10.930;2023-07-31T02:16:22;13.60;99.90
13256;DHT22;37913;48.370;10.930;2023-07-31T02:18:49;13.60;99.90
13256;DHT22;37913;48.370;10.930;2023-07-31T02:21:16;13.60;99.90
13256;DHT22;37913;48.370;10.930;2023-07-31T02:23:43;13.50;99.90
13256;DHT22;37913;48.370;10.930;2023-07-31T02:26:12;13.40;99.90
13256;DHT22;37913;48.370;10.930;2023-07-31T02:28:39;13.30;99.90
13256;DHT22;37913;48.370;10.930;2023-07-31T02:31:08;13.10;99.90
13256;DHT22;37913;48.370;10.930;2023-07-31T02:33:37;13.00;99.90
13256;DHT22;37913;48.370;10.930;2023-07-31T02:36:04;12.90;99.90
13256;DHT22;37913;48.370;10.930;2023-07-31T02:38:31;12.70;99.90
13256;DHT22;37913;48.370;10.930;2023-07-31T02:40:57;12.80;99.90
13256;DHT22;37913;48.370;10.930;2023-07-31T02:43:23;12.80;99.90
13256;DHT22;37913;48.370;10.930;2023-07-31T02:45:51;12.70;99.90
13256;DHT22;37913;48.370;10.930;2023-07-31T02:48:18;12.70;99.90
13256;DHT22;37913;48.370;10.930;2023-07-31T02:50:47;12.80;99.90
13256;DHT22;37913;48.370;10.930;2023-07-31T02:53:14;13.00;99.90
13256;DHT22;37913;48.370;10.930;2023-07-31T02:55:41;13.00;99.90
13256;DHT22;37913;48.370;10.930;2023-07-31T02:58:08;12.90;99.90
13256;DHT22;37913;48.370;10.930;2023-07-31T03:00:42;12.80;99.90
13256;DHT22;37913;48.370;10.930;2023-07-31T03:03:09;12.90;99.90
13256;DHT22;37913;48.370;10.930;2023-07-31T03:05:35;12.90;99.90
13256;DHT22;37913;48.370;10.930;2023-07-31T03:08:10;12.80;99.90
13256;DHT22;37913;48.370;10.930;2023-07-31T03:10:37;12.80;99.90
13256;DHT22;37913;48.370;10.930;2023-07-31T03:13:03;12.90;99.90
13256;DHT22;37913;48.370;10.930;2023-07-31T03:15:30;12.90;99.90
13256;DHT22;37913;48.370;10.930;2023-07-31T03:17:58;13.00;99.90
13256;DHT22;37913;48.370;10.930;2023-07-31T03:20:25;13.20;99.90
13256;DHT22;37913;48.370;10.930;2023-07-31T03:22:52;13.30;99.90
13256;DHT22;37913;48.370;10.930;2023-07-31T03:25:22;13.40;99.90
13256;DHT22;37913;48.370;10.930;2023-07-31T03:27:49;13.40;99.90
13256;DHT22;37913;48.370;10.930;2023-07-31T03:30:16;13.50;99.90
13256;DHT22;37913;48.370;10.930;2023-07-31T03:32:43;13.40;99.90
13256;DHT22;37913;48.370;10.930;2023-07-31T03:35:10;13.40;99.90
13256;DHT22;37913;48.370;10.930;2023-07-31T03:37:37;13.40;99.90
13256;DHT22;37913;48.370;10.930;2023-07-31T03:40:04;13.40;99.90
13256;DHT22;37913;48.370;10.930;2023-07-31T03:42:33;13.40;99.90
13256;DHT22;37913;48.370;10.930;2023-07-31T03:45:00;13.40;99.90
13256;DHT22;37913;48.370;10.930;2023-07-31T03:47:26;13.50;99.90
13256;DHT22;37913;48.370;10.930;2023-07-31T03:49:53;13.50;99.90
13256;DHT22;37913;48.370;10.930;2023-07-31T03:52:20;13.50;99.90
13256;DHT22;37913;48.370;10.930;2023-07-31T03:54:47;13.50;99.90
13256;DHT22;37913;48.370;10.930;2023-07-31T03:57:14;13.50;99.90
13256;DHT22;37913;48.370;10.930;2023-07-31T03:59:43;13.50;99.90
13256;DHT22;37913;48.370;10.930;2023-07-31T04:02:09;13.50;99.90
13256;DHT22;37913;48.370;10.930;2023-07-31T04:04:38;13.60;99.90
13256;DHT22;37913;48.370;10.930;2023-07-31T04:07:05;13.60;99.90
13256;DHT22;37913;48.370;10.930;2023-07-31T04:09:32;13.70;99.90
13256;DHT22;37913;48.370;10.930;2023-07-31T04:11:59;13.70;99.90
13256;DHT22;37913;48.370;10.930;2023-07-31T04:14:27;13.80;99.90
13256;DHT22;37913;48.370;10.930;2023-07-31T04:16:55;14.00;99.90
13256;DHT22;37913;48.370;10.930;2023-07-31T04:19:22;14.00;99.90
13256;DHT22;37913;48.370;10.930;2023-07-31T04:21:49;14.10;99.90
13256;DHT22;37913;48.370;10.930;2023-07-31T04:24:16;14.20;99.90
13256;DHT22;37913;48.370;10.930;2023-07-31T04:26:50;14.30;99.90
13256;DHT22;37913;48.370;10.930;2023-07-31T04:29:17;14.30;99.90
13256;DHT22;37913;48.370;10.930;2023-07-31T04:31:44;14.30;99.90
13256;DHT22;37913;48.370;10.930;2023-07-31T04:34:12;14.30;99.90
13256;DHT22;37913;48.370;10.930;2023-07-31T04:36:39;14.40;99.90
13256;DHT22;37913;48.370;10.930;2023-07-31T04:39:06;14.40;99.90
13256;DHT22;37913;48.370;10.930;2023-07-31T04:41:33;14.60;99.90
13256;DHT22;37913;48.370;10.930;2023-07-31T04:44:00;14.70;99.90
13256;DHT22;37913;48.370;10.930;2023-07-31T04:46:34;14.90;99.90
13256;DHT22;37913;48.370;10.930;2023-07-31T04:49:01;15.20;99.90
13256;DHT22;37913;48.370;10.930;2023-07-31T04:51:30;15.40;99.90
13256;DHT22;37913;48.370;10.930;2023-07-31T04:53:56;15.60;99.90
13256;DHT22;37913;48.370;10.930;2023-07-31T04:56:23;15.80;99.90
13256;DHT22;37913;48.370;10.930;2023-07-31T04:58:50;15.60;99.90
13256;DHT22;37913;48.370;10.930;2023-07-31T05:01:17;15.80;99.90
13256;DHT22;37913;48.370;10.930;2023-07-31T05:03:45;15.80;99.90
13256;DHT22;37913;48.370;10.930;2023-07-31T05:06:12;15.70;99.90
13256;DHT22;37913;48.370;10.930;2023-07-31T05:08:42;15.80;99.90
13256;DHT22;37913;48.370;10.930;2023-07-31T05:11:09;15.80;99.90
13256;DHT22;37913;48.370;10.930;2023-07-31T05:13:35;15.80;99.90
13256;DHT22;37913;48.370;10.930;2023-07-31T05:16:02;15.80;99.90
13256;DHT22;37913;48.370;10.930;2023-07-31T05:18:31;15.70;99.90
13256;DHT22;37913;48.370;10.930;2023-07-31T05:20:58;15.80;99.90
13256;DHT22;37913;48.370;10.930;2023-07-31T05:23:26;15.80;99.90
13256;DHT22;37913;48.370;10.930;2023-07-31T05:25:55;15.90;99.90
13256;DHT22;37913;48.370;10.930;2023-07-31T05:28:21;16.00;99.90
13256;DHT22;37913;48.370;10.930;2023-07-31T05:30:48;16.00;99.90
13256;DHT22;37913;48.370;10.930;2023-07-31T05:33:15;15.80;99.90
13256;DHT22;37913;48.370;10.930;2023-07-31T05:35:42;15.80;99.90
13256;DHT22;37913;48.370;10.930;2023-07-31T05:38:10;15.80;99.90
13256;DHT22;37913;48.370;10.930;2023-07-31T05:40:37;15.90;99.90
13256;DHT22;37913;48.370;10.930;2023-07-31T05:43:05;16.20;99.90
13256;DHT22;37913;48.370;10.930;2023-07-31T05:45:33;16.30;99.90
13256;DHT22;37913;48.370;10.930;2023-07-31T05:48:00;16.60;99.90
13256;DHT22;37913;48.370;10.930;2023-07-31T05:50:31;16.60;99.90
13256;DHT22;37913;48.370;10.930;2023-07-31T05:52:59;16.50;99.90
13256;DHT22;37913;48.370;10.930;2023-07-31T05:55:31;16.50;99.90
13256;DHT22;37913;48.370;10.930;2023-07-31T05:57:58;16.60;99.90
13256;DHT22;37913;48.370;10.930;2023-07-31T06:00:27;16.70;99.90
13256;DHT22;37913;48.370;10.930;2023-07-31T06:03:01;16.80;99.90
13256;DHT22;37913;48.370;10.930;2023-07-31T06:05:27;16.90;99.90
13256;DHT22;37913;48.370;10.930;2023-07-31T06:07:55;17.00;99.90
13256;DHT22;37913;48.370;10.930;2023-07-31T06:10:23;17.10;99.90
13256;DHT22;37913;48.370;10.930;2023-07-31T06:12:50;17.00;99.90
13256;DHT22;37913;48.370;10.930;2023-07-31T06:15:17;17.00;99.90
13256;DHT22;37913;48.370;10.930;2023-07-31T06:17:46;17.10;99.90
13256;DHT22;37913;48.370;10.930;2023-07-31T06:20:13;17.20;99.90
13256;DHT22;37913;48.370;10.930;2023-07-31T06:22:42;17.50;99.90
13256;DHT22;37913;48.370;10.930;2023-07-31T06:25:10;17.60;99.90
13256;DHT22;37913;48.370;10.930;2023-07-31T06:27:46;17.90;99.90
13256;DHT22;37913;48.370;10.930;2023-07-31T06:30:13;18.00;99.90
13256;DHT22;37913;48.370;10.930;2023-07-31T06:32:40;17.80;99.90
13256;DHT22;37913;48.370;10.930;2023-07-31T06:35:08;18.10;99.90
13256;DHT22;37913;48.370;10.930;2023-07-31T06:37:35;18.40;99.90
13256;DHT22;37913;48.370;10.930;2023-07-31T06:40:03;18.40;99.90
13256;DHT22;37913;48.370;10.930;2023-07-31T06:42:34;19.00;99.90
13256;DHT22;37913;48.370;10.930;2023-07-31T06:45:01;18.90;99.90
13256;DHT22;37913;48.370;10.930;2023-07-31T06:47:28;19.30;99.90
13256;DHT22;37913;48.370;10.930;2023-07-31T06:49:57;19.60;99.90
13256;DHT22;37913;48.370;10.930;2023-07-31T06:52:26;19.70;99.90
13256;DHT22;37913;48.370;10.930;2023-07-31T06:55:01;19.50;99.90
13256;DHT22;37913;48.370;10.930;2023-07-31T06:57:33;19.40;99.90
13256;DHT22;37913;48.370;10.930;2023-07-31T07:00:15;19.50;99.90
13256;DHT22;37913;48.370;10.930;2023-07-31T07:02:44;19.20;99.90
13256;DHT22;37913;48.370;10.930;2023-07-31T07:05:13;20.50;99.90
13256;DHT22;37913;48.370;10.930;2023-07-31T07:07:42;21.00;99.90
13256;DHT22;37913;48.370;10.930;2023-07-31T07:10:40;21.10;99.90
13256;DHT22;37913;48.370;10.930;2023-07-31T07:13:11;21.80;99.90
13256;DHT22;37913;48.370;10.930;2023-07-31T07:15:47;21.80;99.90
13256;DHT22;37913;48.370;10.930;2023-07-31T07:18:23;22.40;99.90
13256;DHT22;37913;48.370;10.930;2023-07-31T07:20:58;22.30;99.90
13256;DHT22;37913;48.370;10.930;2023-07-31T07:23:32;22.30;99.90
13256;DHT22;37913;48.370;10.930;2023-07-31T07:26:10;22.70;99.90
13256;DHT22;37913;48.370;10.930;2023-07-31T07:28:38;23.60;99.90
13256;DHT22;37913;48.370;10.930;2023-07-31T07:31:17;22.70;99.90
13256;DHT22;37913;48.370;10.930;2023-07-31T07:33:51;22.50;99.90
13256;DHT22;37913;48.370;10.930;2023-07-31T07:36:28;23.00;99.90
13256;DHT22;37913;48.370;10.930;2023-07-31T07:39:01;22.40;99.90
13256;DHT22;37913;48.370;10.930;2023-07-31T07:41:34;22.80;99.90
13256;DHT22;37913;48.370;10.930;2023-07-31T07:44:18;23.30;99.90
13256;DHT22;37913;48.370;10.930;2023-07-31T07:46:57;22.60;99.90
13256;DHT22;37913;48.370;10.930;2023-07-31T07:49:37;22.20;99.90
13256;DHT22;37913;48.370;10.930;2023-07-31T07:52:06;21.60;99.90
13256;DHT22;37913;48.370;10.930;2023-07-31T07:54:44;21.20;99.90
13256;DHT22;37913;48.370;10.930;2023-07-31T07:57:11;21.10;99.90
13256;DHT22;37913;48.370;10.930;2023-07-31T07:59:38;21.50;99.90
13256;DHT22;37913;48.370;10.930;2023-07-31T08:02:06;21.70;99.90
13256;DHT22;37913;48.370;10.930;2023-07-31T08:04:40;21.80;99.90
13256;DHT22;37913;48.370;10.930;2023-07-31T08:07:10;22.00;99.90
13256;DHT22;37913;48.370;10.930;2023-07-31T08:09:37;21.60;99.90
13256;DHT22;37913;48.370;10.930;2023-07-31T08:12:24;21.50;99.90
13256;DHT22;37913;48.370;10.930;2023-07-31T08:15:02;21.70;99.90
13256;DHT22;37913;48.370;10.930;2023-07-31T08:17:29;21.00;99.90
13256;DHT22;37913;48.370;10.930;2023-07-31T08:20:06;20.60;99.90
13256;DHT22;37913;48.370;10.930;2023-07-31T08:22:34;20.10;99.90
13256;DHT22;37913;48.370;10.930;2023-07-31T08:25:02;20.30;99.90
13256;DHT22;37913;48.370;10.930;2023-07-31T08:27:34;20.40;99.90
13256;DHT22;37913;48.370;10.930;2023-07-31T08:30:01;20.50;99.90
13256;DHT22;37913;48.370;10.930;2023-07-31T08:32:33;20.70;99.90
13256;DHT22;37913;48.370;10.930;2023-07-31T08:35:15;20.90;99.90
13256;DHT22;37913;48.370;10.930;2023-07-31T08:37:47;21.70;99.90
13256;DHT22;37913;48.370;10.930;2023-07-31T08:40:17;22.00;99.90
13256;DHT22;37913;48.370;10.930;2023-07-31T08:42:47;21.90;99.90
13256;DHT22;37913;48.370;10.930;2023-07-31T08:45:24;23.50;99.90
13256;DHT22;37913;48.370;10.930;2023-07-31T08:47:55;24.60;99.90
13256;DHT22;37913;48.370;10.930;2023-07-31T08:50:26;26.00;99.90
13256;DHT22;37913;48.370;10.930;2023-07-31T08:52:55;25.90;99.90
13256;DHT22;37913;48.370;10.930;2023-07-31T08:55:22;23.40;99.90
13256;DHT22;37913;48.370;10.930;2023-07-31T08:57:52;24.20;99.90
13256;DHT22;37913;48.370;10.930;2023-07-31T09:00:20;24.90;99.90
13256;DHT22;37913;48.370;10.930;2023-07-31T09:02:54;25.20;99.90
13256;DHT22;37913;48.370;10.930;2023-07-31T09:05:32;24.80;99.90
13256;DHT22;37913;48.370;10.930;2023-07-31T09:08:10;24.40;99.90
13256;DHT22;37913;48.370;10.930;2023-07-31T09:10:41;24.30;99.90
13256;DHT22;37913;48.370;10.930;2023-07-31T09:13:10;25.00;99.90
13256;DHT22;37913;48.370;10.930;2023-07-31T09:15:39;25.70;99.20
13256;DHT22;37913;48.370;10.930;2023-07-31T09:18:07;25.30;99.70
13256;DHT22;37913;48.370;10.930;2023-07-31T09:20:35;26.00;98.90
13256;DHT22;37913;48.370;10.930;2023-07-31T09:23:07;27.20;98.00
13256;DHT22;37913;48.370;10.930;2023-07-31T09:25:36;28.30;96.40
13256;DHT22;37913;48.370;10.930;2023-07-31T09:28:05;29.90;92.90
13256;DHT22;37913;48.370;10.930;2023-07-31T09:30:44;29.00;92.50
13256;DHT22;37913;48.370;10.930;2023-07-31T09:33:12;28.90;92.30
13256;DHT22;37913;48.370;10.930;2023-07-31T09:35:40;29.30;92.20
13256;DHT22;37913;48.370;10.930;2023-07-31T09:38:09;29.80;91.60
13256;DHT22;37913;48.370;10.930;2023-07-31T09:40:38;30.50;91.10
13256;DHT22;37913;48.370;10.930;2023-07-31T09:43:08;33.00;86.20
13256;DHT22;37913;48.370;10.930;2023-07-31T09:45:38;31.90;83.50
13256;DHT22;37913;48.370;10.930;2023-07-31T09:48:07;29.20;86.60
13256;DHT22;37913;48.370;10.930;2023-07-31T09:50:37;27.30;90.60
13256;DHT22;37913;48.370;10.930;2023-07-31T09:53:09;26.60;92.00
13256;DHT22;37913;48.370;10.930;2023-07-31T09:55:37;26.10;91.70
13256;DHT22;37913;48.370;10.930;2023-07-31T09:58:06;27.90;91.00
13256;DHT22;37913;48.370;10.930;2023-07-31T10:00:37;30.10;89.70
13256;DHT22;37913;48.370;10.930;2023-07-31T10:03:16;32.60;83.40
13256;DHT22;37913;48.370;10.930;2023-07-31T10:05:45;34.40;76.90
13256;DHT22;37913;48.370;10.930;2023-07-31T10:08:26;34.70;73.50
13256;DHT22;37913;48.370;10.930;2023-07-31T10:11:01;35.20;72.80
13256;DHT22;37913;48.370;10.930;2023-07-31T10:13:30;34.10;70.80
13256;DHT22;37913;48.370;10.930;2023-07-31T10:15:59;32.90;72.50
13256;DHT22;37913;48.370;10.930;2023-07-31T10:18:32;31.20;74.30
13256;DHT22;37913;48.370;10.930;2023-07-31T10:21:00;30.70;75.00
13256;DHT22;37913;48.370;10.930;2023-07-31T10:23:28;32.40;74.50
13256;DHT22;37913;48.370;10.930;2023-07-31T10:25:57;32.60;72.40
13256;DHT22;37913;48.370;10.930;2023-07-31T10:28:26;33.80;72.00
13256;DHT22;37913;48.370;10.930;2023-07-31T10:30:54;34.40;68.40
13256;DHT22;37913;48.370;10.930;2023-07-31T10:33:23;28.50;75.60
13256;DHT22;37913;48.370;10.930;2023-07-31T10:35:51;28.80;79.10
13256;DHT22;37913;48.370;10.930;2023-07-31T10:38:38;29.90;79.10
13256;DHT22;37913;48.370;10.930;2023-07-31T10:41:08;32.40;74.80
13256;DHT22;37913;48.370;10.930;2023-07-31T10:43:36;33.80;72.00
13256;DHT22;37913;48.370;10.930;2023-07-31T10:46:06;33.90;70.50
13256;DHT22;37913;48.370;10.930;2023-07-31T10:48:37;32.80;70.00
13256;DHT22;37913;48.370;10.930;2023-07-31T10:51:08;28.60;77.10
13256;DHT22;37913;48.370;10.930;2023-07-31T10:53:38;30.30;75.50
13256;DHT22;37913;48.370;10.930;2023-07-31T10:56:11;31.60;72.00
13256;DHT22;37913;48.370;10.930;2023-07-31T10:58:44;33.70;69.70
13256;DHT22;37913;48.370;10.930;2023-07-31T11:01:11;34.60;67.80
13256;DHT22;37913;48.370;10.930;2023-07-31T11:03:45;36.00;64.50
13256;DHT22;37913;48.370;10.930;2023-07-31T11:06:13;36.50;63.70
13256;DHT22;37913;48.370;10.930;2023-07-31T11:08:45;32.40;64.80
13256;DHT22;37913;48.370;10.930;2023-07-31T11:11:13;31.60;70.50
13256;DHT22;37913;48.370;10.930;2023-07-31T11:13:42;32.70;65.90
13256;DHT22;37913;48.370;10.930;2023-07-31T11:16:11;31.80;69.20
13256;DHT22;37913;48.370;10.930;2023-07-31T11:18:39;32.50;68.00
13256;DHT22;37913;48.370;10.930;2023-07-31T11:21:09;31.30;69.50
13256;DHT22;37913;48.370;10.930;2023-07-31T11:23:38;32.80;69.80
13256;DHT22;37913;48.370;10.930;2023-07-31T11:26:06;35.10;64.20
13256;DHT22;37913;48.370;10.930;2023-07-31T11:28:34;36.80;63.40
13256;DHT22;37913;48.370;10.930;2023-07-31T11:31:01;36.00;62.50
13256;DHT22;37913;48.370;10.930;2023-07-31T11:33:28;38.20;61.10
13256;DHT22;37913;48.370;10.930;2023-07-31T11:35:55;35.70;62.20
13256;DHT22;37913;48.370;10.930;2023-07-31T11:38:25;34.20;63.30
13256;DHT22;37913;48.370;10.930;2023-07-31T11:40:52;28.80;69.50
13256;DHT22;37913;48.370;10.930;2023-07-31T11:43:20;30.20;71.90
13256;DHT22;37913;48.370;10.930;2023-07-31T11:45:48;34.20;67.80
13256;DHT22;37913;48.370;10.930;2023-07-31T11:48:19;37.10;61.60
13256;DHT22;37913;48.370;10.930;2023-07-31T11:50:48;36.90;61.70
13256;DHT22;37913;48.370;10.930;2023-07-31T11:53:18;37.10;61.50
13256;DHT22;37913;48.370;10.930;2023-07-31T11:55:47;40.60;58.20
13256;DHT22;37913;48.370;10.930;2023-07-31T11:58:15;37.50;60.70
13256;DHT22;37913;48.370;10.930;2023-07-31T12:00:42;41.00;58.30
13256;DHT22;37913;48.370;10.930;2023-07-31T12:03:10;39.50;52.90
13256;DHT22;37913;48.370;10.930;2023-07-31T12:05:37;35.70;57.90
13256;DHT22;37913;48.370;10.930;2023-07-31T12:08:09;37.30;57.30
13256;DHT22;37913;48.370;10.930;2023-07-31T12:10:39;35.10;58.70
13256;DHT22;37913;48.370;10.930;2023-07-31T12:13:09;32.70;59.30
13256;DHT22;37913;48.370;10.930;2023-07-31T12:15:40;33.40;62.00
13256;DHT22;37913;48.370;10.930;2023-07-31T12:18:09;35.30;60.80
13256;DHT22;37913;48.370;10.930;2023-07-31T12:20:41;37.80;57.10
13256;DHT22;37913;48.370;10.930;2023-07-31T12:23:13;35.90;58.80
13256;DHT22;37913;48.370;10.930;2023-07-31T12:25:40;34.80;59.70
13256;DHT22;37913;48.370;10.930;2023-07-31T12:28:09;31.50;63.60
13256;DHT22;37913;48.370;10.930;2023-07-31T12:30:40;30.10;65.30
13256;DHT22;37913;48.370;10.930;2023-07-31T12:33:12;27.70;69.80
13256;DHT22;37913;48.370;10.930;2023-07-31T12:35:43;29.60;70.40
13256;DHT22;37913;48.370;10.930;2023-07-31T12:38:11;30.50;68.50
13256;DHT22;37913;48.370;10.930;2023-07-31T12:40:39;30.00;69.10
13256;DHT22;37913;48.370;10.930;2023-07-31T12:43:10;28.50;71.50
13256;DHT22;37913;48.370;10.930;2023-07-31T12:45:37;27.60;74.80
13256;DHT22;37913;48.370;10.930;2023-07-31T12:48:04;27.80;76.80
13256;DHT22;37913;48.370;10.930;2023-07-31T12:50:31;27.80;75.50
13256;DHT22;37913;48.370;10.930;2023-07-31T12:52:58;28.10;75.30
13256;DHT22;37913;48.370;10.930;2023-07-31T12:55:25;28.00;74.50
13256;DHT22;37913;48.370;10.930;2023-07-31T12:57:57;28.30;74.30
13256;DHT22;37913;48.370;10.930;2023-07-31T13:00:26;27.80;75.30
13256;DHT22;37913;48.370;10.930;2023-07-31T13:02:53;31.50;69.00
13256;DHT22;37913;48.370;10.930;2023-07-31T13:05:20;30.00;67.30
13256;DHT22;37913;48.370;10.930;2023-07-31T13:07:47;28.40;73.70
13256;DHT22;37913;48.370;10.930;2023-07-31T13:10:14;29.30;72.30
13256;DHT22;37913;48.370;10.930;2023-07-31T13:12:41;28.00;73.10
13256;DHT22;37913;48.370;10.930;2023-07-31T13:15:09;27.90;74.90
13256;DHT22;37913;48.370;10.930;2023-07-31T13:17:37;25.60;77.70
13256;DHT22;37913;48.370;10.930;2023-07-31T13:20:05;25.50;79.00
13256;DHT22;37913;48.370;10.930;2023-07-31T13:22:32;25.30;80.90
13256;DHT22;37913;48.370;10.930;2023-07-31T13:24:59;24.70;82.50
13256;DHT22;37913;48.370;10.930;2023-07-31T13:27:26;24.60;83.70
13256;DHT22;37913;48.370;10.930;2023-07-31T13:29:53;24.50;84.50
13256;DHT22;37913;48.370;10.930;2023-07-31T13:32:21;26.10;81.50
13256;DHT22;37913;48.370;10.930;2023-07-31T13:34:51;29.40;75.50
13256;DHT22;37913;48.370;10.930;2023-07-31T13:37:18;32.00;68.60
13256;DHT22;37913;48.370;10.930;2023-07-31T13:39:45;32.00;67.30
13256;DHT22;37913;48.370;10.930;2023-07-31T13:42:12;30.40;70.10
13256;DHT22;37913;48.370;10.930;2023-07-31T13:44:39;30.50;69.50
13256;DHT22;37913;48.370;10.930;2023-07-31T13:47:07;30.00;70.80
13256;DHT22;37913;48.370;10.930;2023-07-31T13:49:34;29.60;71.10
13256;DHT22;37913;48.370;10.930;2023-07-31T13:52:06;29.30;72.90
13256;DHT22;37913;48.370;10.930;2023-07-31T13:54:33;27.20;74.60
13256;DHT22;37913;48.370;10.930;2023-07-31T13:57:02;26.80;77.30
13256;DHT22;37913;48.370;10.930;2023-07-31T13:59:29;26.50;79.10
13256;DHT22;37913;48.370;10.930;2023-07-31T14:01:56;24.50;82.80
13256;DHT22;37913;48.370;10.930;2023-07-31T14:04:25;24.00;86.90
13256;DHT22;37913;48.370;10.930;2023-07-31T14:06:52;24.40;87.30
13256;DHT22;37913;48.370;10.930;2023-07-31T14:09:22;24.00;88.50
13256;DHT22;37913;48.370;10.930;2023-07-31T14:11:49;23.70;89.40
13256;DHT22;37913;48.370;10.930;2023-07-31T14:14:17;23.80;90.10
13256;DHT22;37913;48.370;10.930;2023-07-31T14:16:45;24.30;90.70
13256;DHT22;37913;48.370;10.930;2023-07-31T14:19:12;24.20;89.40
13256;DHT22;37913;48.370;10.930;2023-07-31T14:21:39;24.10;89.20
13256;DHT22;37913;48.370;10.930;2023-07-31T14:24:06;23.90;88.30
13256;DHT22;37913;48.370;10.930;2023-07-31T14:26:34;23.60;88.30
13256;DHT22;37913;48.370;10.930;2023-07-31T14:29:01;23.70;90.20
13256;DHT22;37913;48.370;10.930;2023-07-31T14:31:28;23.70;90.30
13256;DHT22;37913;48.370;10.930;2023-07-31T14:33:55;23.10;93.20
13256;DHT22;37913;48.370;10.930;2023-07-31T14:36:22;22.80;96.40
13256;DHT22;37913;48.370;10.930;2023-07-31T14:38:49;22.40;96.40
13256;DHT22;37913;48.370;10.930;2023-07-31T14:41:18;23.10;95.90
13256;DHT22;37913;48.370;10.930;2023-07-31T14:43:47;23.50;94.80
13256;DHT22;37913;48.370;10.930;2023-07-31T14:46:14;23.20;94.40
13256;DHT22;37913;48.370;10.930;2023-07-31T14:48:41;23.00;95.20
13256;DHT22;37913;48.370;10.930;2023-07-31T14:51:09;23.20;94.00
13256;DHT22;37913;48.370;10.930;2023-07-31T14:53:36;23.20;94.30
13256;DHT22;37913;48.370;10.930;2023-07-31T14:56:03;23.30;94.30
13256;DHT22;37913;48.370;10.930;2023-07-31T14:58:30;23.40;93.60
13256;DHT22;37913;48.370;10.930;2023-07-31T15:00:58;24.00;94.10
13256;DHT22;37913;48.370;10.930;2023-07-31T15:03:25;24.10;93.30
13256;DHT22;37913;48.370;10.930;2023-07-31T15:05:52;23.90;93.10
13256;DHT22;37913;48.370;10.930;2023-07-31T15:08:19;23.90;93.80
13256;DHT22;37913;48.370;10.930;2023-07-31T15:10:46;23.70;93.90
13256;DHT22;37913;48.370;10.930;2023-07-31T15:13:13;23.40;94.10
13256;DHT22;37913;48.370;10.930;2023-07-31T15:15:41;22.90;94.40
13256;DHT22;37913;48.370;10.930;2023-07-31T15:18:09;22.70;94.80
13256;DHT22;37913;48.370;10.930;2023-07-31T15:20:36;22.80;95.20
13256;DHT22;37913;48.370;10.930;2023-07-31T15:23:03;22.60;95.30
13256;DHT22;37913;48.370;10.930;2023-07-31T15:25:38;22.50;95.30
13256;DHT22;37913;48.370;10.930;2023-07-31T15:28:05;22.30;96.00